sensor_id;sensor_type;location;lat;lon;timestamp;pressure;altitude;pressure_sealevel;temperature;humidity
68141;BME280;54941;52.220;104.306;2022-09-09T00:01:04;96283.91;;;12.31;76.93
68141;BME280;54941;52.220;104.306;2022-09-09T00:03:55;96288.22;;;12.37;76.85
68141;BME280;54941;52.220;104.306;2022-09-09T00:06:45;96277.69;;;12.50;74.58
68141;BME280;54941;52.220;104.306;2022-09-09T00:09:39;96276.22;;;12.73;75.18
68141;BME280;54941;52.220;104.306;2022-09-09T00:12:38;96279.97;;;13.18;73.84
68141;BME280;54941;52.220;104.306;2022-09-09T00:15:27;96273.13;;;13.47;73.11
68141;BME280;54941;52.220;104.306;2022-09-09T00:18:20;96262.97;;;13.69;72.53
68141;BME280;54941;52.220;104.306;2022-09-09T00:21:12;96265.63;;;14.08;68.45
68141;BME280;54941;52.220;104.306;2022-09-09T00:23:58;96265.84;;;14.19;68.90
68141;BME280;54941;52.220;104.306;2022-09-09T00:26:45;96270.03;;;14.76;68.43
68141;BME280;54941;52.220;104.306;2022-09-09T00:29:41;96263.00;;;15.38;68.76
68141;BME280;54941;52.220;104.306;2022-09-09T00:32:29;96269.38;;;16.24;64.53
68141;BME280;54941;52.220;104.306;2022-09-09T00:35:18;96274.84;;;16.66;61.26
68141;BME280;54941;52.220;104.306;2022-09-09T00:38:12;96283.75;;;16.75;61.09
68141;BME280;54941;52.220;104.306;2022-09-09T00:41:03;96282.81;;;16.86;60.87
68141;BME280;54941;52.220;104.306;2022-09-09T00:43:56;96280.97;;;17.77;59.26
68141;BME280;54941;52.220;104.306;2022-09-09T00:46:54;96284.44;;;18.50;52.77
68141;BME280;54941;52.220;104.306;2022-09-09T00:49:49;96285.09;;;19.03;51.11
68141;BME280;54941;52.220;104.306;2022-09-09T00:52:42;96284.41;;;20.42;44.83
68141;BME280;54941;52.220;104.306;2022-09-09T00:55:37;96287.06;;;20.86;44.40
68141;BME280;54941;52.220;104.306;2022-09-09T00:58:25;96291.72;;;20.94;44.10
68141;BME280;54941;52.220;104.306;2022-09-09T01:01:11;96287.63;;;20.14;44.74
68141;BME280;54941;52.220;104.306;2022-09-09T01:03:58;96298.31;;;20.32;43.93
68141;BME280;54941;52.220;104.306;2022-09-09T01:06:46;96283.75;;;21.09;41.44
68141;BME280;54941;52.220;104.306;2022-09-09T01:09:45;96276.06;;;21.80;40.30
68141;BME280;54941;52.220;104.306;2022-09-09T01:12:40;96285.94;;;22.17;40.28
68141;BME280;54941;52.220;104.306;2022-09-09T01:15:28;96286.06;;;22.31;39.27
68141;BME280;54941;52.220;104.306;2022-09-09T01:18:17;96282.00;;;22.20;39.53
68141;BME280;54941;52.220;104.306;2022-09-09T01:21:13;96284.91;;;22.42;39.31
68141;BME280;54941;52.220;104.306;2022-09-09T01:24:15;96277.69;;;22.29;38.43
68141;BME280;54941;52.220;104.306;2022-09-09T01:27:05;96275.84;;;23.09;37.18
68141;BME280;54941;52.220;104.306;2022-09-09T01:29:51;96275.59;;;22.50;36.24
68141;BME280;54941;52.220;104.306;2022-09-09T01:32:42;96275.78;;;21.58;37.79
68141;BME280;54941;52.220;104.306;2022-09-09T01:35:34;96268.13;;;21.33;37.61
68141;BME280;54941;52.220;104.306;2022-09-09T01:38:22;96276.09;;;21.52;37.35
68141;BME280;54941;52.220;104.306;2022-09-09T01:41:08;96274.31;;;21.76;37.05
68141;BME280;54941;52.220;104.306;2022-09-09T01:43:55;96269.38;;;21.69;37.31
68141;BME280;54941;52.220;104.306;2022-09-09T01:46:41;96276.53;;;21.93;36.32
68141;BME280;54941;52.220;104.306;2022-09-09T01:49:26;96267.28;;;21.95;36.13
68141;BME280;54941;52.220;104.306;2022-09-09T01:52:11;96267.06;;;21.34;36.85
68141;BME280;54941;52.220;104.306;2022-09-09T01:54:56;96270.31;;;22.31;34.90
68141;BME280;54941;52.220;104.306;2022-09-09T02:00:32;96270.13;;;23.72;32.67
68141;BME280;54941;52.220;104.306;2022-09-09T02:03:23;96272.63;;;23.50;31.53
68141;BME280;54941;52.220;104.306;2022-09-09T02:06:18;96270.59;;;23.74;30.00
68141;BME280;54941;52.220;104.306;2022-09-09T02:09:07;96272.41;;;23.46;31.49
68141;BME280;54941;52.220;104.306;2022-09-09T02:11:59;96273.81;;;23.85;32.00
68141;BME280;54941;52.220;104.306;2022-09-09T02:14:49;96260.47;;;23.95;32.62
68141;BME280;54941;52.220;104.306;2022-09-09T02:17:38;96263.38;;;23.66;33.43
68141;BME280;54941;52.220;104.306;2022-09-09T02:20:26;96263.38;;;23.34;33.62
68141;BME280;54941;52.220;104.306;2022-09-09T02:23:13;96268.50;;;24.17;32.36
68141;BME280;54941;52.220;104.306;2022-09-09T02:26:00;96265.50;;;24.23;32.36
68141;BME280;54941;52.220;104.306;2022-09-09T02:28:47;96253.06;;;24.87;31.42
68141;BME280;54941;52.220;104.306;2022-09-09T02:31:34;96267.72;;;24.93;30.54
68141;BME280;54941;52.220;104.306;2022-09-09T02:34:23;96256.81;;;24.72;30.45
68141;BME280;54941;52.220;104.306;2022-09-09T02:37:10;96253.25;;;25.57;28.81
68141;BME280;54941;52.220;104.306;2022-09-09T02:40:02;96255.31;;;24.80;29.45
68141;BME280;54941;52.220;104.306;2022-09-09T02:42:49;96263.47;;;24.70;30.44
68141;BME280;54941;52.220;104.306;2022-09-09T02:45:41;96262.50;;;25.02;29.68
68141;BME280;54941;52.220;104.306;2022-09-09T02:48:31;96264.91;;;24.76;29.84
68141;BME280;54941;52.220;104.306;2022-09-09T02:51:25;96253.84;;;24.88;28.26
68141;BME280;54941;52.220;104.306;2022-09-09T02:54:19;96269.97;;;24.23;28.77
68141;BME280;54941;52.220;104.306;2022-09-09T02:57:16;96258.16;;;25.50;28.13
68141;BME280;54941;52.220;104.306;2022-09-09T03:00:03;96274.44;;;24.50;28.25
68141;BME280;54941;52.220;104.306;2022-09-09T03:02:48;96270.25;;;24.08;28.26
68141;BME280;54941;52.220;104.306;2022-09-09T03:05:33;96267.94;;;23.60;29.94
68141;BME280;54941;52.220;104.306;2022-09-09T03:08:20;96271.78;;;24.63;28.53
68141;BME280;54941;52.220;104.306;2022-09-09T03:11:05;96262.75;;;25.14;28.15
68141;BME280;54941;52.220;104.306;2022-09-09T03:13:50;96250.72;;;23.95;29.40
68141;BME280;54941;52.220;104.306;2022-09-09T03:16:34;96246.06;;;24.19;29.80
68141;BME280;54941;52.220;104.306;2022-09-09T03:19:20;96243.00;;;23.99;29.40
68141;BME280;54941;52.220;104.306;2022-09-09T03:22:05;96248.41;;;24.21;29.50
68141;BME280;54941;52.220;104.306;2022-09-09T03:24:51;96240.84;;;24.91;29.40
68141;BME280;54941;52.220;104.306;2022-09-09T03:27:36;96240.16;;;24.63;28.99
68141;BME280;54941;52.220;104.306;2022-09-09T03:30:22;96237.41;;;24.55;28.39
68141;BME280;54941;52.220;104.306;2022-09-09T03:33:07;96237.63;;;24.81;29.08
68141;BME280;54941;52.220;104.306;2022-09-09T03:35:52;96233.81;;;24.51;29.20
68141;BME280;54941;52.220;104.306;2022-09-09T03:38:37;96229.75;;;23.31;31.62
68141;BME280;54941;52.220;104.306;2022-09-09T03:41:25;96229.56;;;22.33;33.24
68141;BME280;54941;52.220;104.306;2022-09-09T03:44:10;96225.78;;;23.14;32.71
68141;BME280;54941;52.220;104.306;2022-09-09T03:46:55;96227.91;;;25.03;30.39
68141;BME280;54941;52.220;104.306;2022-09-09T03:49:40;96227.75;;;24.50;30.63
68141;BME280;54941;52.220;104.306;2022-09-09T03:52:25;96220.47;;;24.83;30.29
68141;BME280;54941;52.220;104.306;2022-09-09T03:55:10;96214.13;;;24.84;30.00
68141;BME280;54941;52.220;104.306;2022-09-09T03:57:56;96221.03;;;25.69;29.62
68141;BME280;54941;52.220;104.306;2022-09-09T04:00:41;96214.75;;;25.56;28.66
68141;BME280;54941;52.220;104.306;2022-09-09T04:03:26;96208.00;;;24.75;30.15
68141;BME280;54941;52.220;104.306;2022-09-09T04:06:13;96206.16;;;25.82;28.25
68141;BME280;54941;52.220;104.306;2022-09-09T04:08:58;96196.72;;;24.61;30.55
68141;BME280;54941;52.220;104.306;2022-09-09T04:11:43;96192.72;;;25.61;28.34
68141;BME280;54941;52.220;104.306;2022-09-09T04:14:29;96192.22;;;26.89;26.19
68141;BME280;54941;52.220;104.306;2022-09-09T04:17:14;96187.44;;;26.00;27.46
68141;BME280;54941;52.220;104.306;2022-09-09T04:19:59;96178.81;;;25.16;29.27
68141;BME280;54941;52.220;104.306;2022-09-09T04:22:44;96172.22;;;25.05;28.29
68141;BME280;54941;52.220;104.306;2022-09-09T04:25:29;96178.47;;;24.87;29.50
68141;BME280;54941;52.220;104.306;2022-09-09T04:28:15;96173.47;;;24.13;30.71
68141;BME280;54941;52.220;104.306;2022-09-09T04:31:14;96167.94;;;24.15;30.36
68141;BME280;54941;52.220;104.306;2022-09-09T04:33:59;96160.34;;;24.36;29.86
68141;BME280;54941;52.220;104.306;2022-09-09T04:36:47;96160.81;;;24.15;30.14
68141;BME280;54941;52.220;104.306;2022-09-09T04:39:32;96153.28;;;24.09;31.70
68141;BME280;54941;52.220;104.306;2022-09-09T04:42:17;96141.38;;;23.16;30.50
68141;BME280;54941;52.220;104.306;2022-09-09T04:45:05;96132.16;;;23.46;30.90
68141;BME280;54941;52.220;104.306;2022-09-09T04:47:54;96126.88;;;23.87;30.76
68141;BME280;54941;52.220;104.306;2022-09-09T04:50:39;96129.22;;;23.47;30.64
68141;BME280;54941;52.220;104.306;2022-09-09T04:53:25;96119.00;;;23.59;30.30
68141;BME280;54941;52.220;104.306;2022-09-09T04:56:12;96115.63;;;24.22;29.96
68141;BME280;54941;52.220;104.306;2022-09-09T04:58:57;96111.03;;;24.50;30.51
68141;BME280;54941;52.220;104.306;2022-09-09T05:01:42;96115.28;;;24.59;29.34
68141;BME280;54941;52.220;104.306;2022-09-09T05:04:29;96112.53;;;23.93;29.36
68141;BME280;54941;52.220;104.306;2022-09-09T05:07:14;96108.63;;;23.08;29.74
68141;BME280;54941;52.220;104.306;2022-09-09T05:10:02;96104.09;;;23.55;31.28
68141;BME280;54941;52.220;104.306;2022-09-09T05:12:52;96100.28;;;23.74;29.58
68141;BME280;54941;52.220;104.306;2022-09-09T05:15:42;96104.91;;;24.05;29.78
68141;BME280;54941;52.220;104.306;2022-09-09T05:18:35;96097.84;;;24.28;29.74
68141;BME280;54941;52.220;104.306;2022-09-09T05:21:23;96089.22;;;24.00;28.88
68141;BME280;54941;52.220;104.306;2022-09-09T05:24:08;96081.00;;;23.52;28.95
68141;BME280;54941;52.220;104.306;2022-09-09T05:26:53;96080.47;;;23.36;29.58
68141;BME280;54941;52.220;104.306;2022-09-09T05:29:40;96068.88;;;23.78;29.63
68141;BME280;54941;52.220;104.306;2022-09-09T05:32:25;96073.22;;;23.96;28.91
68141;BME280;54941;52.220;104.306;2022-09-09T05:35:10;96068.44;;;23.49;30.06
68141;BME280;54941;52.220;104.306;2022-09-09T05:38:00;96063.56;;;24.05;29.44
68141;BME280;54941;52.220;104.306;2022-09-09T05:40:47;96063.34;;;23.66;29.23
68141;BME280;54941;52.220;104.306;2022-09-09T05:43:32;96057.53;;;23.42;29.48
68141;BME280;54941;52.220;104.306;2022-09-09T05:46:19;96051.28;;;24.01;29.74
68141;BME280;54941;52.220;104.306;2022-09-09T05:49:04;96048.78;;;23.82;29.91
68141;BME280;54941;52.220;104.306;2022-09-09T05:51:49;96043.06;;;24.16;29.63
68141;BME280;54941;52.220;104.306;2022-09-09T05:54:36;96042.88;;;23.63;29.56
68141;BME280;54941;52.220;104.306;2022-09-09T05:57:21;96036.06;;;23.35;29.42
68141;BME280;54941;52.220;104.306;2022-09-09T06:00:07;96033.41;;;23.62;31.10
68141;BME280;54941;52.220;104.306;2022-09-09T06:02:52;96025.25;;;23.22;30.40
68141;BME280;54941;52.220;104.306;2022-09-09T06:05:37;96021.16;;;23.16;30.63
68141;BME280;54941;52.220;104.306;2022-09-09T06:08:22;96020.56;;;23.47;29.79
68141;BME280;54941;52.220;104.306;2022-09-09T06:11:10;96021.94;;;23.31;30.06
68141;BME280;54941;52.220;104.306;2022-09-09T06:13:56;96013.84;;;23.90;30.41
68141;BME280;54941;52.220;104.306;2022-09-09T06:16:43;96016.16;;;23.69;30.77
68141;BME280;54941;52.220;104.306;2022-09-09T06:19:29;96022.72;;;23.31;30.48
68141;BME280;54941;52.220;104.306;2022-09-09T06:22:13;96018.31;;;22.99;29.96
68141;BME280;54941;52.220;104.306;2022-09-09T06:24:59;96009.47;;;23.50;30.00
68141;BME280;54941;52.220;104.306;2022-09-09T06:27:50;96005.03;;;22.63;29.97
68141;BME280;54941;52.220;104.306;2022-09-09T06:30:39;96001.88;;;23.07;29.93
68141;BME280;54941;52.220;104.306;2022-09-09T06:33:24;96001.00;;;23.25;29.29
68141;BME280;54941;52.220;104.306;2022-09-09T06:36:11;95999.63;;;23.55;29.24
68141;BME280;54941;52.220;104.306;2022-09-09T06:38:57;95998.47;;;23.20;29.57
68141;BME280;54941;52.220;104.306;2022-09-09T06:41:42;95996.09;;;23.33;29.48
68141;BME280;54941;52.220;104.306;2022-09-09T06:44:29;96000.78;;;23.22;29.30
68141;BME280;54941;52.220;104.306;2022-09-09T06:47:14;95997.06;;;23.37;29.25
68141;BME280;54941;52.220;104.306;2022-09-09T06:50:02;95991.19;;;22.90;28.95
68141;BME280;54941;52.220;104.306;2022-09-09T06:52:47;95983.09;;;22.87;29.29
68141;BME280;54941;52.220;104.306;2022-09-09T06:55:32;95990.38;;;22.90;29.23
68141;BME280;54941;52.220;104.306;2022-09-09T06:58:17;95981.34;;;22.68;29.43
68141;BME280;54941;52.220;104.306;2022-09-09T07:01:05;95977.97;;;22.49;29.81
68141;BME280;54941;52.220;104.306;2022-09-09T07:03:51;95974.19;;;22.69;29.88
68141;BME280;54941;52.220;104.306;2022-09-09T07:06:38;95974.22;;;23.10;29.67
68141;BME280;54941;52.220;104.306;2022-09-09T07:09:23;95971.97;;;23.44;29.86
68141;BME280;54941;52.220;104.306;2022-09-09T07:12:08;95967.06;;;23.38;28.89
68141;BME280;54941;52.220;104.306;2022-09-09T07:14:53;95964.13;;;23.39;29.05
68141;BME280;54941;52.220;104.306;2022-09-09T07:17:39;95962.41;;;23.21;29.19
68141;BME280;54941;52.220;104.306;2022-09-09T07:20:25;95963.38;;;23.25;29.47
68141;BME280;54941;52.220;104.306;2022-09-09T07:23:09;95959.72;;;22.99;29.04
68141;BME280;54941;52.220;104.306;2022-09-09T07:25:54;95962.16;;;22.82;29.58
68141;BME280;54941;52.220;104.306;2022-09-09T07:28:40;95957.72;;;22.50;29.44
68141;BME280;54941;52.220;104.306;2022-09-09T07:31:27;95954.91;;;22.60;29.65
68141;BME280;54941;52.220;104.306;2022-09-09T07:34:14;95947.09;;;22.55;29.43
68141;BME280;54941;52.220;104.306;2022-09-09T07:36:59;95942.91;;;22.72;29.88
68141;BME280;54941;52.220;104.306;2022-09-09T07:39:44;95942.50;;;22.79;29.85
68141;BME280;54941;52.220;104.306;2022-09-09T07:42:29;95943.47;;;22.97;30.03
68141;BME280;54941;52.220;104.306;2022-09-09T07:45:15;95933.63;;;22.89;29.37
68141;BME280;54941;52.220;104.306;2022-09-09T07:48:02;95936.78;;;22.58;30.08
68141;BME280;54941;52.220;104.306;2022-09-09T07:50:48;95934.66;;;22.47;30.28
68141;BME280;54941;52.220;104.306;2022-09-09T07:53:34;95931.94;;;22.38;30.52
68141;BME280;54941;52.220;104.306;2022-09-09T07:56:19;95923.38;;;22.46;30.28
68141;BME280;54941;52.220;104.306;2022-09-09T07:59:05;95922.59;;;22.59;30.01
68141;BME280;54941;52.220;104.306;2022-09-09T08:01:51;95920.09;;;22.68;30.81
68141;BME280;54941;52.220;104.306;2022-09-09T08:04:36;95925.41;;;22.63;30.82
68141;BME280;54941;52.220;104.306;2022-09-09T08:07:22;95915.84;;;22.72;30.67
68141;BME280;54941;52.220;104.306;2022-09-09T08:10:08;95908.63;;;22.77;30.29
68141;BME280;54941;52.220;104.306;2022-09-09T08:12:53;95914.81;;;22.54;30.55
68141;BME280;54941;52.220;104.306;2022-09-09T08:15:38;95917.34;;;22.46;30.81
68141;BME280;54941;52.220;104.306;2022-09-09T08:18:23;95928.13;;;22.30;30.76
68141;BME280;54941;52.220;104.306;2022-09-09T08:21:09;95929.88;;;22.35;30.65
68141;BME280;54941;52.220;104.306;2022-09-09T08:23:58;95929.88;;;22.35;30.89
68141;BME280;54941;52.220;104.306;2022-09-09T08:26:44;95926.47;;;22.35;31.10
68141;BME280;54941;52.220;104.306;2022-09-09T08:29:29;95934.28;;;22.53;30.75
68141;BME280;54941;52.220;104.306;2022-09-09T08:32:14;95937.19;;;22.38;30.65
68141;BME280;54941;52.220;104.306;2022-09-09T08:34:59;95938.75;;;22.39;30.28
68141;BME280;54941;52.220;104.306;2022-09-09T08:37:44;95933.56;;;22.20;30.52
68141;BME280;54941;52.220;104.306;2022-09-09T08:40:33;95932.91;;;22.10;30.93
68141;BME280;54941;52.220;104.306;2022-09-09T08:43:24;95940.31;;;22.08;31.23
68141;BME280;54941;52.220;104.306;2022-09-09T08:46:12;95943.53;;;22.05;31.32
68141;BME280;54941;52.220;104.306;2022-09-09T08:49:03;95936.22;;;22.02;31.08
68141;BME280;54941;52.220;104.306;2022-09-09T08:51:53;95943.00;;;22.03;31.02
68141;BME280;54941;52.220;104.306;2022-09-09T08:54:40;95947.59;;;21.97;30.88
68141;BME280;54941;52.220;104.306;2022-09-09T08:57:28;95933.09;;;21.81;32.26
68141;BME280;54941;52.220;104.306;2022-09-09T09:00:13;95947.03;;;21.44;33.52
68141;BME280;54941;52.220;104.306;2022-09-09T09:03:05;95952.13;;;21.35;33.13
68141;BME280;54941;52.220;104.306;2022-09-09T09:05:54;95947.25;;;21.05;33.68
68141;BME280;54941;52.220;104.306;2022-09-09T09:08:47;95950.53;;;20.92;34.34
68141;BME280;54941;52.220;104.306;2022-09-09T09:11:38;95945.28;;;20.92;34.44
68141;BME280;54941;52.220;104.306;2022-09-09T09:14:26;95956.63;;;20.87;34.41
68141;BME280;54941;52.220;104.306;2022-09-09T09:17:13;95953.31;;;20.77;34.22
68141;BME280;54941;52.220;104.306;2022-09-09T09:19:58;95955.19;;;20.76;34.24
68141;BME280;54941;52.220;104.306;2022-09-09T09:22:48;95960.81;;;20.65;34.72
68141;BME280;54941;52.220;104.306;2022-09-09T09:25:35;95964.31;;;20.55;34.95
68141;BME280;54941;52.220;104.306;2022-09-09T09:28:25;95959.81;;;20.61;34.56
68141;BME280;54941;52.220;104.306;2022-09-09T09:31:12;95968.25;;;20.53;34.87
68141;BME280;54941;52.220;104.306;2022-09-09T09:33:57;95964.31;;;20.55;35.46
68141;BME280;54941;52.220;104.306;2022-09-09T09:36:44;95974.84;;;20.50;35.58
68141;BME280;54941;52.220;104.306;2022-09-09T09:39:31;95975.53;;;20.32;35.47
68141;BME280;54941;52.220;104.306;2022-09-09T09:42:17;95985.16;;;20.36;35.37
68141;BME280;54941;52.220;104.306;2022-09-09T09:45:08;95990.59;;;20.11;32.98
68141;BME280;54941;52.220;104.306;2022-09-09T09:48:00;95992.00;;;19.99;31.68
68141;BME280;54941;52.220;104.306;2022-09-09T09:50:50;96000.13;;;19.92;31.15
68141;BME280;54941;52.220;104.306;2022-09-09T09:53:37;96001.50;;;19.84;31.23
68141;BME280;54941;52.220;104.306;2022-09-09T09:56:27;96011.22;;;19.79;31.21
68141;BME280;54941;52.220;104.306;2022-09-09T09:59:31;96010.50;;;19.68;31.13
68141;BME280;54941;52.220;104.306;2022-09-09T10:02:20;96024.16;;;19.60;31.57
68141;BME280;54941;52.220;104.306;2022-09-09T10:05:14;96023.41;;;19.55;31.71
68141;BME280;54941;52.220;104.306;2022-09-09T10:08:04;96031.03;;;19.46;31.00
68141;BME280;54941;52.220;104.306;2022-09-09T10:11:17;96036.53;;;19.39;31.31
68141;BME280;54941;52.220;104.306;2022-09-09T10:14:13;96045.66;;;19.37;31.17
68141;BME280;54941;52.220;104.306;2022-09-09T10:17:13;96055.84;;;19.38;31.12
68141;BME280;54941;52.220;104.306;2022-09-09T10:20:15;96068.72;;;19.25;30.49
68141;BME280;54941;52.220;104.306;2022-09-09T10:23:11;96061.88;;;19.34;30.61
68141;BME280;54941;52.220;104.306;2022-09-09T10:26:11;96075.25;;;19.27;31.02
68141;BME280;54941;52.220;104.306;2022-09-09T10:29:09;96082.34;;;19.17;30.75
68141;BME280;54941;52.220;104.306;2022-09-09T10:32:08;96085.44;;;19.19;31.70
68141;BME280;54941;52.220;104.306;2022-09-09T10:34:57;96089.91;;;19.08;35.43
68141;BME280;54941;52.220;104.306;2022-09-09T10:41:11;96096.00;;;18.58;42.28
68141;BME280;54941;52.220;104.306;2022-09-09T10:44:12;96109.81;;;18.43;43.42
68141;BME280;54941;52.220;104.306;2022-09-09T10:47:15;96116.81;;;18.13;44.08
68141;BME280;54941;52.220;104.306;2022-09-09T10:50:36;96125.66;;;18.12;43.97
68141;BME280;54941;52.220;104.306;2022-09-09T10:53:34;96134.25;;;17.92;45.30
68141;BME280;54941;52.220;104.306;2022-09-09T10:56:21;96143.81;;;17.81;45.31
68141;BME280;54941;52.220;104.306;2022-09-09T10:59:11;96146.94;;;17.73;45.85
68141;BME280;54941;52.220;104.306;2022-09-09T11:02:02;96151.31;;;17.58;46.11
68141;BME280;54941;52.220;104.306;2022-09-09T11:04:54;96170.75;;;17.45;46.43
68141;BME280;54941;52.220;104.306;2022-09-09T11:07:44;96180.94;;;17.46;46.49
68141;BME280;54941;52.220;104.306;2022-09-09T11:10:39;96197.59;;;17.45;46.32
68141;BME280;54941;52.220;104.306;2022-09-09T11:13:31;96197.59;;;17.45;46.57
68141;BME280;54941;52.220;104.306;2022-09-09T11:16:25;96204.00;;;17.28;47.42
68141;BME280;54941;52.220;104.306;2022-09-09T11:19:17;96210.47;;;17.20;47.39
68141;BME280;54941;52.220;104.306;2022-09-09T11:22:08;96229.22;;;17.22;48.02
68141;BME280;54941;52.220;104.306;2022-09-09T11:25:03;96232.78;;;17.11;48.40
68141;BME280;54941;52.220;104.306;2022-09-09T11:31:29;96268.13;;;17.02;48.40
68141;BME280;54941;52.220;104.306;2022-09-09T11:34:33;96271.97;;;16.94;48.12
68141;BME280;54941;52.220;104.306;2022-09-09T11:40:32;96297.28;;;16.72;48.69
68141;BME280;54941;52.220;104.306;2022-09-09T11:43:28;96290.88;;;16.58;47.71
68141;BME280;54941;52.220;104.306;2022-09-09T11:46:15;96295.47;;;16.51;47.55
68141;BME280;54941;52.220;104.306;2022-09-09T11:49:03;96303.13;;;16.41;47.70
68141;BME280;54941;52.220;104.306;2022-09-09T11:51:49;96308.22;;;16.31;47.71
68141;BME280;54941;52.220;104.306;2022-09-09T11:54:46;96339.50;;;16.36;47.27
68141;BME280;54941;52.220;104.306;2022-09-09T11:57:35;96338.94;;;16.12;48.10
68141;BME280;54941;52.220;104.306;2022-09-09T12:00:37;96342.41;;;16.01;48.06
68141;BME280;54941;52.220;104.306;2022-09-09T12:03:39;96370.00;;;16.02;48.00
68141;BME280;54941;52.220;104.306;2022-09-09T12:06:29;96386.88;;;15.83;47.90
68141;BME280;54941;52.220;104.306;2022-09-09T12:09:21;96391.13;;;15.72;48.76
68141;BME280;54941;52.220;104.306;2022-09-09T12:12:21;96412.25;;;15.47;50.24
68141;BME280;54941;52.220;104.306;2022-09-09T12:15:24;96417.50;;;15.36;51.60
68141;BME280;54941;52.220;104.306;2022-09-09T12:18:15;96413.25;;;15.30;51.05
68141;BME280;54941;52.220;104.306;2022-09-09T12:21:13;96424.22;;;15.20;51.96
68141;BME280;54941;52.220;104.306;2022-09-09T12:24:06;96423.75;;;15.23;50.41
68141;BME280;54941;52.220;104.306;2022-09-09T12:26:57;96424.84;;;15.10;49.94
68141;BME280;54941;52.220;104.306;2022-09-09T12:29:49;96424.91;;;15.16;49.79
68141;BME280;54941;52.220;104.306;2022-09-09T12:32:40;96435.31;;;15.16;49.92
68141;BME280;54941;52.220;104.306;2022-09-09T12:35:28;96427.56;;;15.04;50.17
68141;BME280;54941;52.220;104.306;2022-09-09T12:38:17;96447.28;;;15.17;50.11
68141;BME280;54941;52.220;104.306;2022-09-09T12:41:05;96430.66;;;15.29;49.91
68141;BME280;54941;52.220;104.306;2022-09-09T12:44:04;96429.75;;;15.24;50.50
68141;BME280;54941;52.220;104.306;2022-09-09T12:46:50;96421.09;;;15.18;51.35
68141;BME280;54941;52.220;104.306;2022-09-09T12:49:38;96421.28;;;15.28;52.07
68141;BME280;54941;52.220;104.306;2022-09-09T12:52:28;96434.44;;;15.10;52.64
68141;BME280;54941;52.220;104.306;2022-09-09T12:55:18;96446.00;;;15.19;53.46
68141;BME280;54941;52.220;104.306;2022-09-09T12:58:04;96458.16;;;15.02;55.22
68141;BME280;54941;52.220;104.306;2022-09-09T13:00:54;96475.78;;;15.00;55.78
68141;BME280;54941;52.220;104.306;2022-09-09T13:03:42;96487.00;;;14.54;57.80
68141;BME280;54941;52.220;104.306;2022-09-09T13:06:31;96512.41;;;14.52;59.58
68141;BME280;54941;52.220;104.306;2022-09-09T13:09:18;96546.91;;;14.11;63.14
68141;BME280;54941;52.220;104.306;2022-09-09T13:12:04;96545.84;;;13.89;63.83
68141;BME280;54941;52.220;104.306;2022-09-09T13:14:54;96556.22;;;13.59;65.39
68141;BME280;54941;52.220;104.306;2022-09-09T13:17:40;96549.09;;;13.54;66.60
68141;BME280;54941;52.220;104.306;2022-09-09T13:20:28;96549.50;;;13.22;67.18
68141;BME280;54941;52.220;104.306;2022-09-09T13:23:15;96539.50;;;13.25;66.98
68141;BME280;54941;52.220;104.306;2022-09-09T13:26:05;96551.78;;;13.11;67.00
68141;BME280;54941;52.220;104.306;2022-09-09T13:28:51;96554.38;;;13.11;66.41
68141;BME280;54941;52.220;104.306;2022-09-09T13:31:37;96549.47;;;13.40;65.05
68141;BME280;54941;52.220;104.306;2022-09-09T13:34:29;96562.28;;;13.16;65.12
68141;BME280;54941;52.220;104.306;2022-09-09T13:37:22;96566.53;;;13.11;65.37
68141;BME280;54941;52.220;104.306;2022-09-09T13:40:17;96536.00;;;12.95;66.06
68141;BME280;54941;52.220;104.306;2022-09-09T13:43:04;96540.03;;;12.91;68.12
68141;BME280;54941;52.220;104.306;2022-09-09T13:45:54;96545.28;;;12.84;68.39
68141;BME280;54941;52.220;104.306;2022-09-09T13:48:40;96552.16;;;12.90;68.71
68141;BME280;54941;52.220;104.306;2022-09-09T13:51:32;96549.47;;;13.03;68.50
68141;BME280;54941;52.220;104.306;2022-09-09T13:54:18;96545.91;;;12.98;68.96
68141;BME280;54941;52.220;104.306;2022-09-09T13:57:04;96542.69;;;12.84;69.15
68141;BME280;54941;52.220;104.306;2022-09-09T13:59:54;96533.19;;;12.60;70.49
68141;BME280;54941;52.220;104.306;2022-09-09T14:02:41;96534.38;;;12.57;70.40
68141;BME280;54941;52.220;104.306;2022-09-09T14:05:29;96525.63;;;12.58;70.97
68141;BME280;54941;52.220;104.306;2022-09-09T14:08:24;96525.13;;;12.68;70.44
68141;BME280;54941;52.220;104.306;2022-09-09T14:11:12;96526.28;;;12.72;70.47
68141;BME280;54941;52.220;104.306;2022-09-09T14:13:57;96540.38;;;12.76;70.34
68141;BME280;54941;52.220;104.306;2022-09-09T14:16:46;96543.22;;;12.68;70.26
68141;BME280;54941;52.220;104.306;2022-09-09T14:19:32;96539.09;;;12.85;70.34
68141;BME280;54941;52.220;104.306;2022-09-09T14:22:17;96552.50;;;12.76;70.58
68141;BME280;54941;52.220;104.306;2022-09-09T14:25:05;96550.19;;;12.67;70.43
68141;BME280;54941;52.220;104.306;2022-09-09T14:27:52;96566.94;;;12.65;70.13
68141;BME280;54941;52.220;104.306;2022-09-09T14:30:41;96580.78;;;12.52;69.51
68141;BME280;54941;52.220;104.306;2022-09-09T14:33:27;96590.47;;;12.32;69.98
68141;BME280;54941;52.220;104.306;2022-09-09T14:36:12;96594.53;;;12.22;70.51
68141;BME280;54941;52.220;104.306;2022-09-09T14:38:57;96600.94;;;12.12;70.03
68141;BME280;54941;52.220;104.306;2022-09-09T14:41:44;96607.31;;;12.10;69.72
68141;BME280;54941;52.220;104.306;2022-09-09T14:44:29;96613.13;;;11.99;69.90